EFHK/HEL METAR and TAF weather

Enter ICAO airport designator
Station Type Date Time Source
EFHK METAR 2021/04/13 07:20 UTC NOAA

EFHK 130720Z 22006KT CAVOK 06/01 Q1019 NOSIG


Station Type Date Time Source
EFHK Decoded METAR 2021/04/13 07:20 UTC NOAA

Helsinki-Vantaa, Finland (EFHK) 60-19N 024-58E 56M
Apr 13, 2021 - 03:20 AM EDT / 2021.04.13 0720 UTC
Wind: from the SW (220 degrees) at 7 MPH (6 KT):0
Visibility: greater than 7 mile(s):0
Temperature: 42 F (6 C)
Dew Point: 33 F (1 C)
Relative Humidity: 70%
Pressure (altimeter): 30.09 in. Hg (1019 hPa)
ob: EFHK 130720Z 22006KT CAVOK 06/01 Q1019 NOSIG
cycle: 7

Station Type Date Time Source
EFHK TAF 2021/04/13 06:42 UTC NOAA

TAF EFHK 130526Z 1306/1406 23007KT 9999 FEW012 BKN050
BECMG 1323/1401 6000 BKN004
TEMPO 1401/1404 2000 BR
BECMG 1404/1406 8000 BKN005

Example: see airport list